createdAt,value
2018-07-06T00:02:35.108Z,4.63
2018-07-06T00:05:40.681Z,4.43
2018-07-06T00:08:46.358Z,4.77
2018-07-06T00:11:52.112Z,4.43
2018-07-06T00:14:57.649Z,4.17
2018-07-06T00:18:03.148Z,5.70
2018-07-06T00:21:08.934Z,4.33
2018-07-06T00:24:14.245Z,3.87
2018-07-06T00:27:19.763Z,4.37
2018-07-06T00:30:25.392Z,4.10
2018-07-06T00:33:30.630Z,3.83
2018-07-06T00:36:36.246Z,4.20
2018-07-06T00:39:41.939Z,4.87
2018-07-06T00:42:47.651Z,4.57
2018-07-06T00:45:52.922Z,5.30
2018-07-06T00:48:58.494Z,6.20
2018-07-06T00:52:03.943Z,6.05
2018-07-06T00:55:10.973Z,6.03
2018-07-06T00:58:16.460Z,5.90
2018-07-06T01:01:21.659Z,5.23
2018-07-06T01:04:27.044Z,5.20
2018-07-06T01:07:32.490Z,5.73
2018-07-06T01:10:38.164Z,6.27
2018-07-06T01:13:43.940Z,5.23
2018-07-06T01:16:49.359Z,5.90
2018-07-06T01:19:54.663Z,6.67
2018-07-06T01:23:03.499Z,5.73
2018-07-06T01:26:08.789Z,5.83
2018-07-06T01:29:13.820Z,5.20
2018-07-06T01:32:19.083Z,6.27
2018-07-06T01:35:24.783Z,5.97
2018-07-06T01:38:30.266Z,6.53
2018-07-06T01:41:35.747Z,7.43
2018-07-06T01:44:41.431Z,8.33
2018-07-06T01:47:47.229Z,8.90
2018-07-06T01:50:52.837Z,9.67
2018-07-06T01:53:58.197Z,10.50
2018-07-06T01:57:03.967Z,10.17
2018-07-06T02:00:09.186Z,12.00
2018-07-06T02:03:14.509Z,12.63
2018-07-06T02:06:20.106Z,14.53
2018-07-06T02:09:25.532Z,14.07
2018-07-06T02:12:30.930Z,13.77
2018-07-06T02:15:36.170Z,12.90
2018-07-06T02:18:41.712Z,16.57
2018-07-06T02:21:47.005Z,16.33
2018-07-06T02:24:52.463Z,14.83
2018-07-06T02:27:58.064Z,15.57
2018-07-06T02:31:03.500Z,16.57
2018-07-06T02:34:08.928Z,17.47
2018-07-06T02:37:14.540Z,19.50
2018-07-06T02:40:20.061Z,16.97
2018-07-06T02:43:25.467Z,18.93
2018-07-06T02:46:30.799Z,18.33
2018-07-06T02:49:36.347Z,19.47
2018-07-06T02:52:41.552Z,22.40
2018-07-06T02:55:47.033Z,20.83
2018-07-06T02:58:52.647Z,22.30
2018-07-06T03:01:58.094Z,25.53
2018-07-06T03:05:03.887Z,24.23
2018-07-06T03:08:09.518Z,25.50
2018-07-06T03:11:14.910Z,25.60
2018-07-06T03:14:20.303Z,25.40
2018-07-06T03:17:25.848Z,26.17
2018-07-06T03:20:31.244Z,30.82
2018-07-06T03:23:36.414Z,29.70
2018-07-06T03:26:41.605Z,29.43
2018-07-06T03:29:47.188Z,31.03
2018-07-06T03:32:55.805Z,29.90
2018-07-06T03:36:01.578Z,30.67
2018-07-06T03:39:07.129Z,30.03
2018-07-06T03:42:12.718Z,32.10
2018-07-06T03:45:18.005Z,33.60
2018-07-06T03:48:28.034Z,31.83
2018-07-06T03:51:33.504Z,38.85
2018-07-06T03:54:38.766Z,31.87
2018-07-06T03:57:43.968Z,32.80
2018-07-06T04:00:49.180Z,31.07
2018-07-06T04:03:54.499Z,37.80
2018-07-06T04:06:59.895Z,37.98
2018-07-06T04:10:05.577Z,37.90
2018-07-06T04:13:11.346Z,32.27
2018-07-06T04:16:16.365Z,33.33
2018-07-06T04:19:21.715Z,32.70
2018-07-06T04:22:27.172Z,38.92
2018-07-06T04:25:32.345Z,34.83
2018-07-06T04:28:37.594Z,31.97
2018-07-06T04:31:42.805Z,34.53
2018-07-06T04:34:48.254Z,31.33
2018-07-06T04:37:54.113Z,37.25
2018-07-06T04:40:59.454Z,32.70
2018-07-06T04:44:04.915Z,33.07
2018-07-06T04:47:10.203Z,34.90
2018-07-06T04:50:15.658Z,29.77
2018-07-06T04:53:21.006Z,28.70
2018-07-06T04:56:26.462Z,28.93
2018-07-06T04:59:32.142Z,27.70
2018-07-06T05:02:37.570Z,29.97
2018-07-06T05:05:42.825Z,28.83
2018-07-06T05:08:48.529Z,27.83
2018-07-06T05:11:53.821Z,27.87
2018-07-06T05:14:59.109Z,26.27
2018-07-06T05:18:04.386Z,26.57
2018-07-06T05:21:09.660Z,24.00
2018-07-06T05:24:15.249Z,24.93
2018-07-06T05:27:20.738Z,21.77
2018-07-06T05:30:26.415Z,24.50
2018-07-06T05:33:32.016Z,20.53
2018-07-06T05:36:37.221Z,22.40
2018-07-06T05:39:42.637Z,21.00
2018-07-06T05:42:48.053Z,18.20
2018-07-06T05:45:53.493Z,18.93
2018-07-06T05:48:58.894Z,19.67
2018-07-06T05:52:04.213Z,19.57
2018-07-06T05:55:09.547Z,15.50
2018-07-06T05:58:15.268Z,17.03
2018-07-06T06:01:20.668Z,16.53
2018-07-06T06:04:25.820Z,14.53
2018-07-06T06:07:23.581Z,14.10
2018-07-06T06:09:52.660Z,15.80
2018-07-06T06:12:21.768Z,15.93
2018-07-06T06:14:51.761Z,11.53
2018-07-06T06:17:20.575Z,13.27
2018-07-06T06:19:49.558Z,17.20
2018-07-06T06:22:18.614Z,14.53
2018-07-06T06:24:47.581Z,15.60
2018-07-06T06:27:16.663Z,15.50
2018-07-06T06:29:46.614Z,14.80
2018-07-06T06:32:16.176Z,13.90
2018-07-06T06:34:45.184Z,13.07
2018-07-06T06:37:14.468Z,12.93
2018-07-06T06:39:43.463Z,13.47
2018-07-06T06:42:14.574Z,14.17
2018-07-06T06:44:41.528Z,16.87
2018-07-06T06:47:10.518Z,13.97
2018-07-06T06:49:39.523Z,13.73
2018-07-06T06:52:08.478Z,19.50
2018-07-06T06:54:37.616Z,16.70
2018-07-06T06:57:06.767Z,16.50
2018-07-06T06:59:39.356Z,14.27
2018-07-06T07:02:08.356Z,16.40
2018-07-06T07:04:37.392Z,13.10
2018-07-06T07:07:06.416Z,15.50
2018-07-06T07:09:35.439Z,16.77
2018-07-06T07:12:06.786Z,19.00
2018-07-06T07:14:35.833Z,16.80
2018-07-06T07:17:05.863Z,15.40
2018-07-06T07:19:35.173Z,15.63
2018-07-06T07:22:07.116Z,16.47
2018-07-06T07:24:36.301Z,16.03
2018-07-06T07:27:05.554Z,11.30
2018-07-06T07:29:37.774Z,11.78
2018-07-06T07:32:11.182Z,10.40
2018-07-06T07:34:41.474Z,9.78
2018-07-06T07:37:11.830Z,8.70
2018-07-06T07:39:42.633Z,8.90
2018-07-06T07:42:18.717Z,9.20
2018-07-06T07:44:48.722Z,9.25
2018-07-06T07:47:19.152Z,11.90
2018-07-06T07:49:49.281Z,11.43
2018-07-06T07:52:55.104Z,11.05
2018-07-06T07:55:25.052Z,10.53
2018-07-06T07:57:55.064Z,9.48
2018-07-06T08:00:25.147Z,9.95
2018-07-06T08:02:55.290Z,12.33
2018-07-06T08:05:26.049Z,9.35
2018-07-06T08:07:56.778Z,10.85
2018-07-06T08:10:26.792Z,12.40
2018-07-06T08:12:59.579Z,8.78
2018-07-06T08:15:29.878Z,9.18
2018-07-06T08:18:05.824Z,8.88
2018-07-06T08:20:35.915Z,10.18
2018-07-06T08:23:09.611Z,10.03
2018-07-06T08:25:39.810Z,9.55
2018-07-06T08:28:10.298Z,7.65
2018-07-06T08:30:44.949Z,7.72
2018-07-06T08:33:13.772Z,8.53
2018-07-06T08:36:38.697Z,9.23
2018-07-06T08:39:12.257Z,7.22
2018-07-06T08:41:39.660Z,8.80
2018-07-06T08:44:08.572Z,7.92
2018-07-06T08:46:40.282Z,5.83
2018-07-06T08:49:09.259Z,5.45
2018-07-06T08:51:38.201Z,6.30
2018-07-06T08:54:08.716Z,5.53
2018-07-06T08:56:40.450Z,5.58
2018-07-06T08:59:11.382Z,5.75
2018-07-06T09:01:44.453Z,6.37
2018-07-06T09:04:44.636Z,8.05
2018-07-06T09:07:15.834Z,5.53
2018-07-06T09:09:42.665Z,5.60
2018-07-06T09:12:18.973Z,5.83
2018-07-06T09:14:48.343Z,5.40
2018-07-06T09:17:18.422Z,6.72
2018-07-06T09:19:51.019Z,5.45
2018-07-06T09:22:20.640Z,4.90
2018-07-06T09:24:53.784Z,5.45
2018-07-06T09:27:22.805Z,4.72
2018-07-06T09:29:51.962Z,3.92
2018-07-06T09:32:23.496Z,5.40
2018-07-06T09:34:52.370Z,4.33
2018-07-06T09:37:21.507Z,4.53
2018-07-06T09:39:55.723Z,4.40
2018-07-06T09:42:22.669Z,4.70
2018-07-06T09:44:51.684Z,4.22
2018-07-06T09:47:20.788Z,3.77
2018-07-06T09:49:49.721Z,4.35
2018-07-06T09:52:18.926Z,4.03
2018-07-06T09:54:47.910Z,4.30
2018-07-06T09:57:23.261Z,3.08
2018-07-06T09:59:58.200Z,3.45
2018-07-06T10:02:27.186Z,5.87
2018-07-06T10:05:00.937Z,3.00
2018-07-06T10:07:27.497Z,3.70
2018-07-06T10:09:56.558Z,4.60
2018-07-06T10:12:25.644Z,3.67
2018-07-06T10:14:54.649Z,3.25
2018-07-06T10:17:23.961Z,3.20
2018-07-06T10:19:53.139Z,2.77
2018-07-06T10:22:29.155Z,5.08
2018-07-06T10:24:58.069Z,2.42
2018-07-06T10:28:53.908Z,2.00
2018-07-06T10:32:53.492Z,2.42
2018-07-06T10:35:22.732Z,3.37
2018-07-06T10:37:54.395Z,2.40
2018-07-06T10:40:23.485Z,2.60
2018-07-06T10:42:52.459Z,2.45
2018-07-06T10:45:23.611Z,3.50
2018-07-06T10:47:52.756Z,2.42
2018-07-06T10:50:21.865Z,2.70
2018-07-06T10:53:11.952Z,3.50
2018-07-06T10:55:38.038Z,2.90
2018-07-06T10:58:08.666Z,2.50
2018-07-06T11:00:36.340Z,3.27
2018-07-06T11:03:05.420Z,2.62
2018-07-06T11:05:34.446Z,2.60
2018-07-06T11:08:03.479Z,2.55
2018-07-06T11:10:32.461Z,2.98
2018-07-06T11:13:04.450Z,2.90
2018-07-06T11:15:35.723Z,2.80
2018-07-06T11:18:04.834Z,3.20
2018-07-06T11:20:34.351Z,4.25
2018-07-06T11:23:06.093Z,2.77
2018-07-06T11:25:35.102Z,2.50
2018-07-06T11:28:05.824Z,4.70
2018-07-06T11:30:34.825Z,2.92
2018-07-06T11:33:05.574Z,2.92
2018-07-06T11:35:34.566Z,2.65
2018-07-06T11:38:06.399Z,2.72
2018-07-06T11:40:35.462Z,2.85
2018-07-06T11:43:04.684Z,2.47
2018-07-06T11:45:33.695Z,2.50
2018-07-06T11:48:02.719Z,2.60
2018-07-06T11:50:31.870Z,2.55
2018-07-06T11:53:00.912Z,2.60
2018-07-06T11:55:30.383Z,2.60
2018-07-06T11:57:59.491Z,4.08
2018-07-06T12:00:28.941Z,2.60
2018-07-06T12:02:58.059Z,3.20
2018-07-06T12:05:27.117Z,2.98
2018-07-06T12:07:56.133Z,2.87
2018-07-06T12:10:25.186Z,2.85
2018-07-06T12:12:56.899Z,2.90
2018-07-06T12:15:27.767Z,3.40
2018-07-06T12:17:57.183Z,2.98
2018-07-06T12:20:28.201Z,2.50
2018-07-06T12:22:55.506Z,2.65
2018-07-06T12:25:26.760Z,3.80
2018-07-06T12:27:55.752Z,3.17
2018-07-06T12:30:27.387Z,4.42
2018-07-06T12:32:56.617Z,4.15
2018-07-06T12:35:28.291Z,3.90
2018-07-06T12:37:57.876Z,4.03
2018-07-06T12:40:26.784Z,3.10
2018-07-06T12:42:56.001Z,5.72
2018-07-06T12:45:25.126Z,3.10
2018-07-06T12:47:54.042Z,3.95
2018-07-06T12:50:23.173Z,3.22
2018-07-06T12:52:56.991Z,3.47
2018-07-06T12:55:26.059Z,2.87
2018-07-06T12:57:55.184Z,3.75
2018-07-06T13:00:24.353Z,2.75
2018-07-06T13:02:53.454Z,3.00
2018-07-06T13:05:22.368Z,3.10
2018-07-06T13:07:51.512Z,3.62
2018-07-06T13:10:20.693Z,3.83
2018-07-06T13:12:49.656Z,2.98
2018-07-06T13:15:18.934Z,3.80
2018-07-06T13:17:48.025Z,5.67
2018-07-06T13:20:16.993Z,4.50
2018-07-06T13:22:46.402Z,5.17
2018-07-06T13:25:18.743Z,3.15
2018-07-06T13:27:47.963Z,4.12
2018-07-06T13:30:21.798Z,3.52
2018-07-06T13:32:51.589Z,3.95
2018-07-06T13:35:20.391Z,4.75
2018-07-06T13:37:50.341Z,3.98
2018-07-06T13:40:22.906Z,3.55
2018-07-06T13:42:52.041Z,5.03
2018-07-06T13:45:21.184Z,3.05
2018-07-06T13:47:50.358Z,3.40
2018-07-06T13:50:24.808Z,2.30
2018-07-06T13:52:54.924Z,3.00
2018-07-06T13:55:26.517Z,3.30
2018-07-06T13:58:02.319Z,2.87
2018-07-06T14:00:29.482Z,3.50
2018-07-06T14:02:58.470Z,2.85
2018-07-06T14:05:27.467Z,3.15
2018-07-06T14:07:56.473Z,3.30
2018-07-06T14:10:25.526Z,3.20
2018-07-06T14:12:56.846Z,4.65
2018-07-06T14:15:28.127Z,3.58
2018-07-06T14:17:59.602Z,3.15
2018-07-06T14:20:28.823Z,3.55
2018-07-06T14:23:00.861Z,4.20
2018-07-06T14:25:29.869Z,2.92
2018-07-06T14:27:59.147Z,4.20
2018-07-06T14:30:28.114Z,5.72
2018-07-06T14:32:57.104Z,3.45
2018-07-06T14:35:26.436Z,5.10
2018-07-06T14:37:55.365Z,5.70
2018-07-06T14:40:24.309Z,3.27
2018-07-06T14:42:53.352Z,3.77
2018-07-06T14:45:23.678Z,8.98
2018-07-06T14:48:01.449Z,3.25
2018-07-06T14:50:30.386Z,4.58
2018-07-06T14:52:59.416Z,3.02
2018-07-06T14:55:31.301Z,4.10
2018-07-06T14:58:02.857Z,4.58
2018-07-06T15:00:31.786Z,3.15
2018-07-06T15:03:00.846Z,3.02
2018-07-06T15:05:30.043Z,70.47
2018-07-06T15:07:58.934Z,3.33
2018-07-06T15:10:28.018Z,5.45
2018-07-06T15:13:30.447Z,3.40
2018-07-06T15:16:39.438Z,4.47
2018-07-06T15:30:07.658Z,5.37
2018-07-06T15:33:27.050Z,4.42
2018-07-06T15:37:12.110Z,6.47
2018-07-06T15:39:45.118Z,5.62
2018-07-06T15:42:26.026Z,4.37
2018-07-06T15:45:55.102Z,4.05
2018-07-06T15:49:25.174Z,3.52
2018-07-06T16:03:15.380Z,3.67
2018-07-06T16:06:43.818Z,3.83
2018-07-06T16:09:17.557Z,3.22
2018-07-06T16:11:54.049Z,4.00
2018-07-06T16:14:50.669Z,3.52
2018-07-06T16:17:55.212Z,3.33
2018-07-06T16:20:49.044Z,3.00
2018-07-06T16:26:51.573Z,6.58
2018-07-06T16:30:25.093Z,5.80
2018-07-06T16:33:30.136Z,6.85
2018-07-06T16:36:17.808Z,5.25
2018-07-06T16:45:28.590Z,4.25
2018-07-06T17:02:27.967Z,4.12
2018-07-06T17:08:49.293Z,9.43
2018-07-06T17:14:49.922Z,2.92
2018-07-06T17:18:20.849Z,9.10
2018-07-06T17:21:48.901Z,3.77
2018-07-06T17:24:37.517Z,3.87
2018-07-06T17:31:15.898Z,2.72
2018-07-06T17:34:29.348Z,2.70
2018-07-06T17:40:10.358Z,3.67
2018-07-06T17:43:17.586Z,3.62
2018-07-06T17:46:15.968Z,32.28
2018-07-06T17:48:59.473Z,8.25
2018-07-06T17:51:54.121Z,8.38
2018-07-06T17:54:23.716Z,3.90
2018-07-06T17:57:21.447Z,5.10
2018-07-06T18:00:34.201Z,5.45
2018-07-06T18:03:20.397Z,3.50
2018-07-06T18:17:05.523Z,2.95
2018-07-06T18:30:27.238Z,4.97
2018-07-06T18:41:01.742Z,7.35
2018-07-06T18:44:15.010Z,4.72
2018-07-06T18:51:18.141Z,7.17
2018-07-06T18:54:28.797Z,4.70
2018-07-06T19:03:21.875Z,114.57
2018-07-06T19:07:48.684Z,39.45
2018-07-06T19:09:15.082Z,71.28
2018-07-06T19:12:16.476Z,20.37
2018-07-06T19:18:33.698Z,6.67
2018-07-06T19:21:40.965Z,6.07
2018-07-06T19:25:52.729Z,8.20
2018-07-06T19:28:59.198Z,4.27
2018-07-06T19:31:36.396Z,6.92
2018-07-06T19:34:29.289Z,4.37
2018-07-06T19:37:01.811Z,4.67
2018-07-06T19:39:30.653Z,4.27
2018-07-06T19:41:59.843Z,6.50
2018-07-06T19:44:29.801Z,3.70
2018-07-06T19:46:58.969Z,6.60
2018-07-06T19:49:31.082Z,5.40
2018-07-06T19:52:00.235Z,3.93
2018-07-06T19:54:29.099Z,5.10
2018-07-06T19:56:58.205Z,7.30
2018-07-06T19:59:27.194Z,4.75
2018-07-06T20:01:56.360Z,4.90
2018-07-06T20:04:25.258Z,5.17
2018-07-06T20:06:54.423Z,7.23
2018-07-06T20:09:23.306Z,5.50
2018-07-06T20:11:52.239Z,4.90
2018-07-06T20:14:21.287Z,4.93
2018-07-06T20:16:50.400Z,6.53
2018-07-06T20:19:19.526Z,7.03
2018-07-06T20:22:08.031Z,9.93
2018-07-06T20:24:38.740Z,7.30
2018-07-06T20:27:12.953Z,4.17
2018-07-06T20:29:43.438Z,6.57
2018-07-06T20:32:26.185Z,5.40
2018-07-06T20:34:56.169Z,6.07
2018-07-06T20:37:26.905Z,6.27
2018-07-06T20:39:58.786Z,8.17
2018-07-06T20:42:35.100Z,7.07
2018-07-06T20:45:04.134Z,8.40
2018-07-06T20:47:35.768Z,5.23
2018-07-06T20:50:04.862Z,10.17
2018-07-06T20:52:36.377Z,5.80
2018-07-06T20:55:05.677Z,9.73
2018-07-06T20:57:37.127Z,9.00
2018-07-06T21:00:06.371Z,5.00
2018-07-06T21:02:39.368Z,10.60
2018-07-06T21:05:08.388Z,4.60
2018-07-06T21:07:35.565Z,10.07
2018-07-06T21:10:04.995Z,3.97
2018-07-06T21:12:33.927Z,8.50
2018-07-06T21:15:03.015Z,6.17
2018-07-06T21:17:32.247Z,7.30
2018-07-06T21:20:04.172Z,5.57
2018-07-06T21:22:33.467Z,7.83
2018-07-06T21:25:02.552Z,5.23
2018-07-06T21:27:31.714Z,6.27
2018-07-06T21:30:00.972Z,8.20
2018-07-06T21:32:30.285Z,12.40
2018-07-06T21:34:59.553Z,6.07
2018-07-06T21:37:28.761Z,9.70
2018-07-06T21:40:00.139Z,4.93
2018-07-06T21:42:37.191Z,6.37
2018-07-06T21:45:06.437Z,7.33
2018-07-06T21:47:37.187Z,6.00
2018-07-06T21:50:06.337Z,6.37
2018-07-06T21:52:38.230Z,12.00
2018-07-06T21:55:07.439Z,17.50
2018-07-06T21:57:36.663Z,7.40
2018-07-06T22:00:11.854Z,6.50
2018-07-06T22:02:41.132Z,8.07
2018-07-06T22:05:12.949Z,7.23
2018-07-06T22:07:44.405Z,13.77
2018-07-06T22:10:13.435Z,3.53
2018-07-06T22:12:42.655Z,6.03
2018-07-06T22:15:14.348Z,7.43
2018-07-06T22:17:43.256Z,6.37
2018-07-06T22:20:15.037Z,6.47
2018-07-06T22:22:46.375Z,6.73
2018-07-06T22:25:18.516Z,9.43
2018-07-06T22:27:50.683Z,6.00
2018-07-06T22:30:19.661Z,11.40
2018-07-06T22:32:48.689Z,7.50
2018-07-06T22:35:17.828Z,6.17
2018-07-06T22:37:47.374Z,5.80
2018-07-06T22:40:17.015Z,7.93
2018-07-06T22:42:46.178Z,5.70
2018-07-06T22:45:15.336Z,4.67
2018-07-06T22:47:48.956Z,6.23
2018-07-06T22:50:20.158Z,7.67
2018-07-06T22:52:49.376Z,6.57
2018-07-06T22:55:20.679Z,6.33
2018-07-06T22:57:49.872Z,5.30
2018-07-06T23:00:18.948Z,9.70
2018-07-06T23:02:47.985Z,5.27
2018-07-06T23:05:20.821Z,6.50
2018-07-06T23:07:49.785Z,8.07
2018-07-06T23:10:18.944Z,5.65
2018-07-06T23:12:48.084Z,6.40
2018-07-06T23:15:17.172Z,3.93
2018-07-06T23:17:48.614Z,3.97
2018-07-06T23:20:17.669Z,7.63
2018-07-06T23:23:14.197Z,6.80
2018-07-06T23:25:49.956Z,6.47
2018-07-06T23:28:19.127Z,7.73
2018-07-06T23:30:49.849Z,6.93
2018-07-06T23:33:18.931Z,6.13
2018-07-06T23:35:47.875Z,7.57
2018-07-06T23:38:16.878Z,5.77
2018-07-06T23:40:45.780Z,4.27
2018-07-06T23:43:14.857Z,4.37
2018-07-06T23:45:43.818Z,6.47
2018-07-06T23:48:12.928Z,7.47
2018-07-06T23:50:44.652Z,6.40
2018-07-06T23:53:13.659Z,9.10
2018-07-06T23:55:42.614Z,8.17
2018-07-06T23:58:11.527Z,6.17
